sensor_id;sensor_type;location;lat;lon;timestamp;temperature;humidity
53314;DHT22;39202;51.468;7.146;2023-04-03T00:02:57;21.80;44.50
53314;DHT22;39202;51.468;7.146;2023-04-03T00:08:00;21.80;44.60
53314;DHT22;39202;51.468;7.146;2023-04-03T00:13:02;21.90;44.70
53314;DHT22;39202;51.468;7.146;2023-04-03T00:18:04;21.90;44.60
53314;DHT22;39202;51.468;7.146;2023-04-03T00:23:08;22.10;44.70
53314;DHT22;39202;51.468;7.146;2023-04-03T00:28:10;22.00;44.60
53314;DHT22;39202;51.468;7.146;2023-04-03T00:33:12;22.00;44.60
53314;DHT22;39202;51.468;7.146;2023-04-03T00:38:15;22.00;44.50
53314;DHT22;39202;51.468;7.146;2023-04-03T00:43:19;22.00;44.50
53314;DHT22;39202;51.468;7.146;2023-04-03T00:48:23;22.00;44.40
53314;DHT22;39202;51.468;7.146;2023-04-03T00:53:30;22.00;44.40
53314;DHT22;39202;51.468;7.146;2023-04-03T00:58:35;22.00;44.30
53314;DHT22;39202;51.468;7.146;2023-04-03T01:03:38;22.00;44.30
53314;DHT22;39202;51.468;7.146;2023-04-03T01:08:41;22.00;44.30
53314;DHT22;39202;51.468;7.146;2023-04-03T01:13:44;22.00;44.30
53314;DHT22;39202;51.468;7.146;2023-04-03T01:18:46;21.90;44.20
53314;DHT22;39202;51.468;7.146;2023-04-03T01:24:02;21.90;44.20
53314;DHT22;39202;51.468;7.146;2023-04-03T01:29:06;21.90;44.20
53314;DHT22;39202;51.468;7.146;2023-04-03T01:34:09;21.90;44.20
53314;DHT22;39202;51.468;7.146;2023-04-03T01:39:11;21.90;44.20
53314;DHT22;39202;51.468;7.146;2023-04-03T01:44:14;21.80;44.30
53314;DHT22;39202;51.468;7.146;2023-04-03T01:49:17;21.80;44.30
53314;DHT22;39202;51.468;7.146;2023-04-03T01:54:19;21.80;44.30
53314;DHT22;39202;51.468;7.146;2023-04-03T01:59:20;22.00;44.40
53314;DHT22;39202;51.468;7.146;2023-04-03T02:09:26;21.90;44.40
53314;DHT22;39202;51.468;7.146;2023-04-03T02:14:28;21.90;44.50
53314;DHT22;39202;51.468;7.146;2023-04-03T02:19:30;21.90;44.40
53314;DHT22;39202;51.468;7.146;2023-04-03T02:24:33;22.00;44.30
53314;DHT22;39202;51.468;7.146;2023-04-03T02:29:34;22.10;44.30
53314;DHT22;39202;51.468;7.146;2023-04-03T02:34:36;22.10;44.20
53314;DHT22;39202;51.468;7.146;2023-04-03T02:39:39;22.10;44.20
53314;DHT22;39202;51.468;7.146;2023-04-03T02:44:41;22.20;44.10
53314;DHT22;39202;51.468;7.146;2023-04-03T02:49:43;22.20;44.00
53314;DHT22;39202;51.468;7.146;2023-04-03T02:54:47;22.20;44.00
53314;DHT22;39202;51.468;7.146;2023-04-03T02:59:49;22.20;43.90
53314;DHT22;39202;51.468;7.146;2023-04-03T03:04:51;22.20;43.90
53314;DHT22;39202;51.468;7.146;2023-04-03T03:09:54;22.20;43.80
53314;DHT22;39202;51.468;7.146;2023-04-03T03:14:55;22.20;43.80
53314;DHT22;39202;51.468;7.146;2023-04-03T03:19:57;22.20;43.80
53314;DHT22;39202;51.468;7.146;2023-04-03T03:25:00;22.20;43.70
53314;DHT22;39202;51.468;7.146;2023-04-03T03:30:03;22.20;43.70
53314;DHT22;39202;51.468;7.146;2023-04-03T03:35:05;22.10;43.70
53314;DHT22;39202;51.468;7.146;2023-04-03T03:40:10;22.10;43.70
53314;DHT22;39202;51.468;7.146;2023-04-03T03:45:13;22.10;43.70
53314;DHT22;39202;51.468;7.146;2023-04-03T03:50:15;22.10;43.70
53314;DHT22;39202;51.468;7.146;2023-04-03T03:55:18;22.10;43.70
53314;DHT22;39202;51.468;7.146;2023-04-03T04:00:20;22.10;43.70
53314;DHT22;39202;51.468;7.146;2023-04-03T04:05:22;22.10;43.70
53314;DHT22;39202;51.468;7.146;2023-04-03T04:10:25;22.10;43.80
53314;DHT22;39202;51.468;7.146;2023-04-03T04:15:26;22.10;43.80
53314;DHT22;39202;51.468;7.146;2023-04-03T04:20:28;22.20;43.90
53314;DHT22;39202;51.468;7.146;2023-04-03T04:25:31;22.20;43.90
53314;DHT22;39202;51.468;7.146;2023-04-03T04:30:34;22.20;43.90
53314;DHT22;39202;51.468;7.146;2023-04-03T04:35:35;22.20;43.80
53314;DHT22;39202;51.468;7.146;2023-04-03T04:40:38;22.20;43.80
53314;DHT22;39202;51.468;7.146;2023-04-03T04:45:41;22.30;43.80
53314;DHT22;39202;51.468;7.146;2023-04-03T04:50:43;22.30;43.70
53314;DHT22;39202;51.468;7.146;2023-04-03T04:55:46;22.30;43.70
53314;DHT22;39202;51.468;7.146;2023-04-03T05:00:48;22.30;43.60
53314;DHT22;39202;51.468;7.146;2023-04-03T05:05:50;22.30;43.60
53314;DHT22;39202;51.468;7.146;2023-04-03T05:10:53;22.20;43.50
53314;DHT22;39202;51.468;7.146;2023-04-03T05:15:55;22.20;43.50
53314;DHT22;39202;51.468;7.146;2023-04-03T05:20:57;22.20;43.50
53314;DHT22;39202;51.468;7.146;2023-04-03T05:26:00;22.20;43.50
53314;DHT22;39202;51.468;7.146;2023-04-03T05:31:02;22.10;43.50
53314;DHT22;39202;51.468;7.146;2023-04-03T05:36:05;22.10;43.50
53314;DHT22;39202;51.468;7.146;2023-04-03T05:41:08;22.10;43.50
53314;DHT22;39202;51.468;7.146;2023-04-03T05:46:11;22.10;43.50
53314;DHT22;39202;51.468;7.146;2023-04-03T05:51:15;22.10;43.60
53314;DHT22;39202;51.468;7.146;2023-04-03T05:56:19;22.10;43.60
53314;DHT22;39202;51.468;7.146;2023-04-03T06:01:21;22.10;43.70
53314;DHT22;39202;51.468;7.146;2023-04-03T06:06:23;22.10;43.70
53314;DHT22;39202;51.468;7.146;2023-04-03T06:11:27;22.20;43.70
53314;DHT22;39202;51.468;7.146;2023-04-03T06:16:29;22.20;43.80
53314;DHT22;39202;51.468;7.146;2023-04-03T06:21:30;22.20;44.00
53314;DHT22;39202;51.468;7.146;2023-04-03T06:26:34;22.20;44.10
53314;DHT22;39202;51.468;7.146;2023-04-03T06:31:36;22.30;43.80
53314;DHT22;39202;51.468;7.146;2023-04-03T06:36:38;22.40;43.40
53314;DHT22;39202;51.468;7.146;2023-04-03T06:41:41;22.50;42.80
53314;DHT22;39202;51.468;7.146;2023-04-03T06:46:44;22.50;42.50
53314;DHT22;39202;51.468;7.146;2023-04-03T06:51:46;22.60;42.30
53314;DHT22;39202;51.468;7.146;2023-04-03T06:56:50;22.60;41.90
53314;DHT22;39202;51.468;7.146;2023-04-03T07:01:52;22.60;41.70
53314;DHT22;39202;51.468;7.146;2023-04-03T07:06:54;22.60;41.70
53314;DHT22;39202;51.468;7.146;2023-04-03T07:11:57;22.80;42.00
53314;DHT22;39202;51.468;7.146;2023-04-03T07:16:59;22.80;42.10
53314;DHT22;39202;51.468;7.146;2023-04-03T07:22:01;22.90;42.20
53314;DHT22;39202;51.468;7.146;2023-04-03T07:27:04;23.00;42.30
53314;DHT22;39202;51.468;7.146;2023-04-03T07:32:06;23.10;42.10
53314;DHT22;39202;51.468;7.146;2023-04-03T07:37:08;23.20;42.10
53314;DHT22;39202;51.468;7.146;2023-04-03T07:42:11;23.30;42.00
53314;DHT22;39202;51.468;7.146;2023-04-03T07:47:13;23.40;41.90
53314;DHT22;39202;51.468;7.146;2023-04-03T07:52:17;23.50;41.90
53314;DHT22;39202;51.468;7.146;2023-04-03T07:57:20;23.60;41.90
53314;DHT22;39202;51.468;7.146;2023-04-03T08:02:22;23.70;41.70
53314;DHT22;39202;51.468;7.146;2023-04-03T08:07:24;23.80;41.50
53314;DHT22;39202;51.468;7.146;2023-04-03T08:12:27;23.90;41.40
53314;DHT22;39202;51.468;7.146;2023-04-03T08:17:30;23.90;41.10
53314;DHT22;39202;51.468;7.146;2023-04-03T08:22:32;24.00;41.20
53314;DHT22;39202;51.468;7.146;2023-04-03T08:27:35;24.00;41.20
53314;DHT22;39202;51.468;7.146;2023-04-03T08:32:37;24.10;41.10
53314;DHT22;39202;51.468;7.146;2023-04-03T08:37:39;24.20;41.10
53314;DHT22;39202;51.468;7.146;2023-04-03T08:42:52;24.20;41.00
53314;DHT22;39202;51.468;7.146;2023-04-03T08:47:59;24.20;40.70
53314;DHT22;39202;51.468;7.146;2023-04-03T08:53:03;24.30;40.90
53314;DHT22;39202;51.468;7.146;2023-04-03T08:58:12;24.30;40.80
53314;DHT22;39202;51.468;7.146;2023-04-03T09:03:17;24.30;40.70
53314;DHT22;39202;51.468;7.146;2023-04-03T09:08:23;24.50;40.80
53314;DHT22;39202;51.468;7.146;2023-04-03T09:13:32;24.50;40.50
53314;DHT22;39202;51.468;7.146;2023-04-03T09:18:41;24.60;40.70
53314;DHT22;39202;51.468;7.146;2023-04-03T09:23:49;24.60;40.60
53314;DHT22;39202;51.468;7.146;2023-04-03T09:28:55;24.70;40.80
53314;DHT22;39202;51.468;7.146;2023-04-03T09:34:01;24.80;41.00
53314;DHT22;39202;51.468;7.146;2023-04-03T09:39:05;24.80;41.00
53314;DHT22;39202;51.468;7.146;2023-04-03T09:44:22;24.90;41.00
53314;DHT22;39202;51.468;7.146;2023-04-03T09:49:25;25.00;40.90
53314;DHT22;39202;51.468;7.146;2023-04-03T09:54:36;25.00;40.90
53314;DHT22;39202;51.468;7.146;2023-04-03T09:59:45;25.00;40.80
53314;DHT22;39202;51.468;7.146;2023-04-03T10:04:48;25.10;40.90
53314;DHT22;39202;51.468;7.146;2023-04-03T10:09:55;25.10;40.90
53314;DHT22;39202;51.468;7.146;2023-04-03T10:15:00;25.20;40.90
53314;DHT22;39202;51.468;7.146;2023-04-03T10:20:09;25.20;40.90
53314;DHT22;39202;51.468;7.146;2023-04-03T10:25:20;25.20;40.80
53314;DHT22;39202;51.468;7.146;2023-04-03T10:30:33;25.30;40.80
53314;DHT22;39202;51.468;7.146;2023-04-03T10:35:44;25.30;40.70
53314;DHT22;39202;51.468;7.146;2023-04-03T10:40:52;25.30;40.80
53314;DHT22;39202;51.468;7.146;2023-04-03T10:46:04;25.40;40.70
53314;DHT22;39202;51.468;7.146;2023-04-03T10:51:21;25.40;40.80
53314;DHT22;39202;51.468;7.146;2023-04-03T10:56:31;25.40;40.70
53314;DHT22;39202;51.468;7.146;2023-04-03T11:01:37;25.50;40.60
53314;DHT22;39202;51.468;7.146;2023-04-03T11:06:44;25.40;40.50
53314;DHT22;39202;51.468;7.146;2023-04-03T11:11:48;25.50;40.50
53314;DHT22;39202;51.468;7.146;2023-04-03T11:17:10;25.50;40.40
53314;DHT22;39202;51.468;7.146;2023-04-03T11:22:17;25.50;40.60
53314;DHT22;39202;51.468;7.146;2023-04-03T11:27:23;25.50;40.20
53314;DHT22;39202;51.468;7.146;2023-04-03T11:33:02;25.50;40.20
53314;DHT22;39202;51.468;7.146;2023-04-03T11:38:06;25.50;40.00
53314;DHT22;39202;51.468;7.146;2023-04-03T11:43:23;25.40;40.10
53314;DHT22;39202;51.468;7.146;2023-04-03T11:48:45;25.50;39.90
53314;DHT22;39202;51.468;7.146;2023-04-03T11:53:48;25.50;39.90
53314;DHT22;39202;51.468;7.146;2023-04-03T11:59:23;25.50;40.00
53314;DHT22;39202;51.468;7.146;2023-04-03T12:04:27;25.40;39.70
53314;DHT22;39202;51.468;7.146;2023-04-03T12:20:56;25.50;40.70
53314;DHT22;39202;51.468;7.146;2023-04-03T12:26:20;25.50;40.10
53314;DHT22;39202;51.468;7.146;2023-04-03T12:31:25;25.60;40.30
53314;DHT22;39202;51.468;7.146;2023-04-03T12:36:41;25.70;40.40
53314;DHT22;39202;51.468;7.146;2023-04-03T12:41:53;25.70;40.40
53314;DHT22;39202;51.468;7.146;2023-04-03T12:47:00;25.80;40.40
53314;DHT22;39202;51.468;7.146;2023-04-03T12:52:16;25.80;40.50
53314;DHT22;39202;51.468;7.146;2023-04-03T12:57:20;25.80;40.50
53314;DHT22;39202;51.468;7.146;2023-04-03T13:02:24;25.80;40.30
53314;DHT22;39202;51.468;7.146;2023-04-03T13:07:29;25.70;39.40
53314;DHT22;39202;51.468;7.146;2023-04-03T13:12:34;25.60;40.20
53314;DHT22;39202;51.468;7.146;2023-04-03T13:17:38;25.70;40.60
53314;DHT22;39202;51.468;7.146;2023-04-03T13:22:50;25.80;40.40
53314;DHT22;39202;51.468;7.146;2023-04-03T13:27:53;25.90;40.30
53314;DHT22;39202;51.468;7.146;2023-04-03T13:32:57;25.90;40.30
53314;DHT22;39202;51.468;7.146;2023-04-03T13:38:03;25.70;40.90
53314;DHT22;39202;51.468;7.146;2023-04-03T13:43:14;25.70;40.90
53314;DHT22;39202;51.468;7.146;2023-04-03T13:48:20;25.90;40.70
53314;DHT22;39202;51.468;7.146;2023-04-03T13:53:25;26.00;40.60
53314;DHT22;39202;51.468;7.146;2023-04-03T13:58:29;26.00;40.50
53314;DHT22;39202;51.468;7.146;2023-04-03T14:03:37;26.00;40.50
53314;DHT22;39202;51.468;7.146;2023-04-03T14:08:41;26.00;40.50
53314;DHT22;39202;51.468;7.146;2023-04-03T14:13:43;26.00;40.50
53314;DHT22;39202;51.468;7.146;2023-04-03T14:18:46;25.90;40.60
53314;DHT22;39202;51.468;7.146;2023-04-03T14:23:49;25.90;40.50
53314;DHT22;39202;51.468;7.146;2023-04-03T14:28:54;25.90;40.40
53314;DHT22;39202;51.468;7.146;2023-04-03T14:33:55;25.80;40.40
53314;DHT22;39202;51.468;7.146;2023-04-03T14:38:59;25.80;40.50
53314;DHT22;39202;51.468;7.146;2023-04-03T14:44:01;25.70;40.50
53314;DHT22;39202;51.468;7.146;2023-04-03T14:49:05;25.70;40.70
53314;DHT22;39202;51.468;7.146;2023-04-03T14:54:16;25.70;40.70
53314;DHT22;39202;51.468;7.146;2023-04-03T14:59:26;25.70;40.70
53314;DHT22;39202;51.468;7.146;2023-04-03T15:04:28;25.60;40.70
53314;DHT22;39202;51.468;7.146;2023-04-03T15:09:31;25.60;40.70
53314;DHT22;39202;51.468;7.146;2023-04-03T15:14:33;25.50;40.70
53314;DHT22;39202;51.468;7.146;2023-04-03T15:19:37;25.50;40.30
53314;DHT22;39202;51.468;7.146;2023-04-03T15:24:40;25.50;40.40
53314;DHT22;39202;51.468;7.146;2023-04-03T15:29:43;25.40;40.40
53314;DHT22;39202;51.468;7.146;2023-04-03T15:34:45;25.40;40.50
53314;DHT22;39202;51.468;7.146;2023-04-03T15:39:48;25.30;40.60
53314;DHT22;39202;51.468;7.146;2023-04-03T15:44:50;25.30;40.60
53314;DHT22;39202;51.468;7.146;2023-04-03T15:49:52;25.30;40.70
53314;DHT22;39202;51.468;7.146;2023-04-03T15:54:55;25.20;40.80
53314;DHT22;39202;51.468;7.146;2023-04-03T15:59:57;25.20;40.80
53314;DHT22;39202;51.468;7.146;2023-04-03T16:04:59;25.10;40.80
53314;DHT22;39202;51.468;7.146;2023-04-03T16:10:03;25.10;40.80
53314;DHT22;39202;51.468;7.146;2023-04-03T16:15:06;25.10;40.90
53314;DHT22;39202;51.468;7.146;2023-04-03T16:20:09;25.10;41.00
53314;DHT22;39202;51.468;7.146;2023-04-03T16:25:13;25.10;41.00
53314;DHT22;39202;51.468;7.146;2023-04-03T16:30:15;25.00;41.00
53314;DHT22;39202;51.468;7.146;2023-04-03T16:35:17;25.00;41.00
53314;DHT22;39202;51.468;7.146;2023-04-03T16:40:20;25.00;41.00
53314;DHT22;39202;51.468;7.146;2023-04-03T16:45:22;24.90;41.00
53314;DHT22;39202;51.468;7.146;2023-04-03T16:50:23;24.90;41.00
53314;DHT22;39202;51.468;7.146;2023-04-03T16:55:27;24.80;41.00
53314;DHT22;39202;51.468;7.146;2023-04-03T17:00:29;24.80;41.00
53314;DHT22;39202;51.468;7.146;2023-04-03T17:05:31;24.80;41.10
53314;DHT22;39202;51.468;7.146;2023-04-03T17:10:34;24.70;41.10
53314;DHT22;39202;51.468;7.146;2023-04-03T17:15:36;24.70;41.10
53314;DHT22;39202;51.468;7.146;2023-04-03T17:20:38;24.60;41.10
53314;DHT22;39202;51.468;7.146;2023-04-03T17:25:42;24.60;41.10
53314;DHT22;39202;51.468;7.146;2023-04-03T17:30:43;24.50;41.10
53314;DHT22;39202;51.468;7.146;2023-04-03T17:35:45;24.50;41.20
53314;DHT22;39202;51.468;7.146;2023-04-03T17:40:48;24.50;41.20
53314;DHT22;39202;51.468;7.146;2023-04-03T17:45:50;24.40;41.20
53314;DHT22;39202;51.468;7.146;2023-04-03T17:50:52;24.40;41.30
53314;DHT22;39202;51.468;7.146;2023-04-03T17:55:55;23.20;40.70
53314;DHT22;39202;51.468;7.146;2023-04-03T18:00:57;24.30;41.20
53314;DHT22;39202;51.468;7.146;2023-04-03T18:06:02;24.20;41.20
53314;DHT22;39202;51.468;7.146;2023-04-03T18:11:05;24.20;41.30
53314;DHT22;39202;51.468;7.146;2023-04-03T18:16:08;24.20;41.30
53314;DHT22;39202;51.468;7.146;2023-04-03T18:21:12;24.10;42.00
53314;DHT22;39202;51.468;7.146;2023-04-03T18:26:15;24.10;41.30
53314;DHT22;39202;51.468;7.146;2023-04-03T18:31:17;24.10;41.40
53314;DHT22;39202;51.468;7.146;2023-04-03T18:36:20;24.10;41.40
53314;DHT22;39202;51.468;7.146;2023-04-03T18:41:27;24.00;41.40
53314;DHT22;39202;51.468;7.146;2023-04-03T18:46:30;24.00;41.40
53314;DHT22;39202;51.468;7.146;2023-04-03T18:51:32;24.00;41.40
53314;DHT22;39202;51.468;7.146;2023-04-03T18:56:35;23.90;41.40
53314;DHT22;39202;51.468;7.146;2023-04-03T19:01:37;23.90;41.40
53314;DHT22;39202;51.468;7.146;2023-04-03T19:06:39;23.90;41.40
53314;DHT22;39202;51.468;7.146;2023-04-03T19:11:42;23.80;41.50
53314;DHT22;39202;51.468;7.146;2023-04-03T19:16:44;23.80;41.50
53314;DHT22;39202;51.468;7.146;2023-04-03T19:21:46;23.80;41.50
53314;DHT22;39202;51.468;7.146;2023-04-03T19:26:49;23.80;41.50
53314;DHT22;39202;51.468;7.146;2023-04-03T19:31:50;23.70;41.50
53314;DHT22;39202;51.468;7.146;2023-04-03T19:36:52;23.70;41.50
53314;DHT22;39202;51.468;7.146;2023-04-03T19:41:56;23.70;41.50
53314;DHT22;39202;51.468;7.146;2023-04-03T19:46:58;23.60;41.60
53314;DHT22;39202;51.468;7.146;2023-04-03T19:52:00;23.60;41.60
53314;DHT22;39202;51.468;7.146;2023-04-03T19:57:03;23.60;41.60
53314;DHT22;39202;51.468;7.146;2023-04-03T20:02:05;23.50;41.60
53314;DHT22;39202;51.468;7.146;2023-04-03T20:07:07;23.50;41.60
53314;DHT22;39202;51.468;7.146;2023-04-03T20:12:10;23.50;41.60
53314;DHT22;39202;51.468;7.146;2023-04-03T20:17:12;23.50;41.60
53314;DHT22;39202;51.468;7.146;2023-04-03T20:22:14;23.50;41.50
53314;DHT22;39202;51.468;7.146;2023-04-03T20:27:17;23.50;40.90
53314;DHT22;39202;51.468;7.146;2023-04-03T20:32:19;23.50;41.00
53314;DHT22;39202;51.468;7.146;2023-04-03T20:37:21;23.50;40.90
53314;DHT22;39202;51.468;7.146;2023-04-03T20:42:24;23.50;41.50
53314;DHT22;39202;51.468;7.146;2023-04-03T20:47:26;23.50;41.50
53314;DHT22;39202;51.468;7.146;2023-04-03T20:52:28;23.50;41.40
53314;DHT22;39202;51.468;7.146;2023-04-03T20:57:33;23.50;41.40
53314;DHT22;39202;51.468;7.146;2023-04-03T21:02:35;23.50;41.40
53314;DHT22;39202;51.468;7.146;2023-04-03T21:19:08;23.50;41.40
53314;DHT22;39202;51.468;7.146;2023-04-03T21:24:10;23.40;41.40
53314;DHT22;39202;51.468;7.146;2023-04-03T21:29:12;23.40;41.40
53314;DHT22;39202;51.468;7.146;2023-04-03T21:34:16;23.40;41.40
53314;DHT22;39202;51.468;7.146;2023-04-03T21:39:18;23.40;42.00
53314;DHT22;39202;51.468;7.146;2023-04-03T21:44:21;23.30;41.40
53314;DHT22;39202;51.468;7.146;2023-04-03T21:49:24;23.30;41.40
53314;DHT22;39202;51.468;7.146;2023-04-03T21:54:26;23.30;41.40
53314;DHT22;39202;51.468;7.146;2023-04-03T21:59:28;23.30;41.50
53314;DHT22;39202;51.468;7.146;2023-04-03T22:04:31;23.30;41.50
53314;DHT22;39202;51.468;7.146;2023-04-03T22:09:33;23.20;41.40
53314;DHT22;39202;51.468;7.146;2023-04-03T22:14:35;23.20;42.10
53314;DHT22;39202;51.468;7.146;2023-04-03T22:19:38;23.20;41.40
53314;DHT22;39202;51.468;7.146;2023-04-03T22:24:40;23.20;41.50
53314;DHT22;39202;51.468;7.146;2023-04-03T22:29:42;23.20;41.40
53314;DHT22;39202;51.468;7.146;2023-04-03T22:34:45;23.10;41.40
53314;DHT22;39202;51.468;7.146;2023-04-03T22:39:47;23.10;41.50
53314;DHT22;39202;51.468;7.146;2023-04-03T22:44:49;23.10;41.50
53314;DHT22;39202;51.468;7.146;2023-04-03T22:49:52;23.10;41.50
53314;DHT22;39202;51.468;7.146;2023-04-03T22:54:53;23.00;41.50
53314;DHT22;39202;51.468;7.146;2023-04-03T22:59:55;23.00;41.50
53314;DHT22;39202;51.468;7.146;2023-04-03T23:04:58;23.00;41.50
53314;DHT22;39202;51.468;7.146;2023-04-03T23:10:00;23.00;41.50
53314;DHT22;39202;51.468;7.146;2023-04-03T23:15:02;23.00;41.50
53314;DHT22;39202;51.468;7.146;2023-04-03T23:20:06;22.90;41.50
53314;DHT22;39202;51.468;7.146;2023-04-03T23:25:08;22.90;41.50
53314;DHT22;39202;51.468;7.146;2023-04-03T23:30:10;22.90;41.50
53314;DHT22;39202;51.468;7.146;2023-04-03T23:35:14;22.90;41.50
53314;DHT22;39202;51.468;7.146;2023-04-03T23:40:16;22.90;41.60
53314;DHT22;39202;51.468;7.146;2023-04-03T23:45:17;22.90;41.60
53314;DHT22;39202;51.468;7.146;2023-04-03T23:50:20;22.80;41.50
53314;DHT22;39202;51.468;7.146;2023-04-03T23:55:22;22.80;41.00
